sensor_id;sensor_type;location;lat;lon;timestamp;pressure;altitude;pressure_sealevel;temperature;humidity
21838;BME280;11081;45.946;6.140;2023-02-21T00:00:03;95734.66;;;8.12;76.15
21838;BME280;11081;45.946;6.140;2023-02-21T00:02:48;95725.06;;;8.13;75.75
21838;BME280;11081;45.946;6.140;2023-02-21T00:05:34;95729.63;;;8.11;75.75
21838;BME280;11081;45.946;6.140;2023-02-21T00:08:21;95715.00;;;8.10;75.64
21838;BME280;11081;45.946;6.140;2023-02-21T00:11:06;95717.38;;;8.05;75.70
21838;BME280;11081;45.946;6.140;2023-02-21T00:13:52;95716.16;;;8.01;76.19
21838;BME280;11081;45.946;6.140;2023-02-21T00:16:37;95708.97;;;8.03;75.92
21838;BME280;11081;45.946;6.140;2023-02-21T00:19:23;95720.41;;;8.08;75.91
21838;BME280;11081;45.946;6.140;2023-02-21T00:22:08;95715.00;;;8.10;75.89
21838;BME280;11081;45.946;6.140;2023-02-21T00:24:55;95714.66;;;8.13;75.40
21838;BME280;11081;45.946;6.140;2023-02-21T00:27:41;95709.22;;;8.08;75.80
21838;BME280;11081;45.946;6.140;2023-02-21T00:30:26;95710.19;;;8.07;76.02
21838;BME280;11081;45.946;6.140;2023-02-21T00:33:12;95709.81;;;8.10;75.89
21838;BME280;11081;45.946;6.140;2023-02-21T00:35:57;95703.78;;;8.03;76.07
21838;BME280;11081;45.946;6.140;2023-02-21T00:38:42;95699.78;;;8.00;76.39
21838;BME280;11081;45.946;6.140;2023-02-21T00:41:29;95694.16;;;7.97;76.50
21838;BME280;11081;45.946;6.140;2023-02-21T00:44:15;95692.56;;;7.95;76.57
21838;BME280;11081;45.946;6.140;2023-02-21T00:47:00;95686.38;;;7.97;76.90
21838;BME280;11081;45.946;6.140;2023-02-21T00:49:46;95692.16;;;7.99;76.62
21838;BME280;11081;45.946;6.140;2023-02-21T00:52:31;95690.19;;;8.01;76.54
21838;BME280;11081;45.946;6.140;2023-02-21T00:55:16;95683.75;;;7.97;76.45
21838;BME280;11081;45.946;6.140;2023-02-21T00:58:03;95684.75;;;7.95;76.20
21838;BME280;11081;45.946;6.140;2023-02-21T01:00:49;95685.75;;;7.94;76.26
21838;BME280;11081;45.946;6.140;2023-02-21T01:03:34;95689.34;;;7.93;76.52
21838;BME280;11081;45.946;6.140;2023-02-21T01:06:20;95690.94;;;7.94;76.13
21838;BME280;11081;45.946;6.140;2023-02-21T01:09:05;95683.75;;;7.97;76.61
21838;BME280;11081;45.946;6.140;2023-02-21T01:11:51;95681.78;;;7.99;76.41
21838;BME280;11081;45.946;6.140;2023-02-21T01:14:38;95680.16;;;7.98;76.31
21838;BME280;11081;45.946;6.140;2023-02-21T01:17:24;95681.34;;;7.95;76.25
21838;BME280;11081;45.946;6.140;2023-02-21T01:20:10;95674.28;;;7.82;76.82
21838;BME280;11081;45.946;6.140;2023-02-21T01:22:56;95673.25;;;7.77;77.00
21838;BME280;11081;45.946;6.140;2023-02-21T01:25:42;95668.47;;;7.80;77.11
21838;BME280;11081;45.946;6.140;2023-02-21T01:28:27;95675.88;;;7.83;77.01
21838;BME280;11081;45.946;6.140;2023-02-21T01:31:17;95671.06;;;7.80;77.18
21838;BME280;11081;45.946;6.140;2023-02-21T01:34:05;95663.28;;;7.80;77.45
21838;BME280;11081;45.946;6.140;2023-02-21T01:36:51;95664.25;;;7.79;77.13
21838;BME280;11081;45.946;6.140;2023-02-21T01:39:37;95656.47;;;7.79;77.42
21838;BME280;11081;45.946;6.140;2023-02-21T01:42:23;95663.28;;;7.80;77.87
21838;BME280;11081;45.946;6.140;2023-02-21T01:45:48;95655.69;;;7.85;77.52
21838;BME280;11081;45.946;6.140;2023-02-21T01:48:35;95665.66;;;7.82;77.11
21838;BME280;11081;45.946;6.140;2023-02-21T01:51:24;95666.47;;;7.82;77.09
21838;BME280;11081;45.946;6.140;2023-02-21T01:54:11;95656.09;;;7.82;76.92
21838;BME280;11081;45.946;6.140;2023-02-21T01:56:58;95658.69;;;7.82;77.11
21838;BME280;11081;45.946;6.140;2023-02-21T01:59:47;95654.81;;;7.72;77.32
21838;BME280;11081;45.946;6.140;2023-02-21T02:02:47;95654.75;;;7.65;77.49
21838;BME280;11081;45.946;6.140;2023-02-21T02:05:36;95652.16;;;7.65;77.37
21838;BME280;11081;45.946;6.140;2023-02-21T02:08:25;95655.53;;;7.59;77.67
21838;BME280;11081;45.946;6.140;2023-02-21T02:11:21;95653.09;;;7.51;77.88
21838;BME280;11081;45.946;6.140;2023-02-21T02:14:27;95642.25;;;7.47;78.45
21838;BME280;11081;45.946;6.140;2023-02-21T02:17:07;95641.72;;;7.52;77.82
21838;BME280;11081;45.946;6.140;2023-02-21T02:22:53;95648.31;;;7.54;78.05
21838;BME280;11081;45.946;6.140;2023-02-21T02:25:53;95644.31;;;7.52;77.78
21838;BME280;11081;45.946;6.140;2023-02-21T02:28:41;95641.44;;;7.47;78.07
21838;BME280;11081;45.946;6.140;2023-02-21T02:31:36;95647.03;;;7.44;77.68
21838;BME280;11081;45.946;6.140;2023-02-21T02:34:34;95640.22;;;7.43;78.07
21838;BME280;11081;45.946;6.140;2023-02-21T02:37:08;95641.81;;;7.44;77.77
21838;BME280;11081;45.946;6.140;2023-02-21T02:39:42;95646.44;;;7.48;77.68
21838;BME280;11081;45.946;6.140;2023-02-21T02:42:24;95641.44;;;7.47;77.67
21838;BME280;11081;45.946;6.140;2023-02-21T02:44:58;95645.41;;;7.43;78.01
21838;BME280;11081;45.946;6.140;2023-02-21T02:47:30;95636.63;;;7.44;77.97
21838;BME280;11081;45.946;6.140;2023-02-21T02:50:06;95641.03;;;7.43;78.50
21838;BME280;11081;45.946;6.140;2023-02-21T02:52:36;95639.84;;;7.46;78.34
21838;BME280;11081;45.946;6.140;2023-02-21T02:55:32;95644.66;;;7.49;78.32
21838;BME280;11081;45.946;6.140;2023-02-21T02:58:01;95647.28;;;7.27;78.57
21838;BME280;11081;45.946;6.140;2023-02-21T03:00:32;95640.41;;;7.13;78.79
21838;BME280;11081;45.946;6.140;2023-02-21T03:03:21;95633.22;;;7.15;79.55
21838;BME280;11081;45.946;6.140;2023-02-21T03:06:04;95635.69;;;7.23;78.90
21838;BME280;11081;45.946;6.140;2023-02-21T03:08:41;95642.34;;;7.32;78.34
21838;BME280;11081;45.946;6.140;2023-02-21T03:11:15;95637.78;;;7.34;78.30
21838;BME280;11081;45.946;6.140;2023-02-21T03:13:47;95637.16;;;7.32;78.10
21838;BME280;11081;45.946;6.140;2023-02-21T03:16:22;95638.16;;;7.31;78.05
21838;BME280;11081;45.946;6.140;2023-02-21T03:18:56;95636.56;;;7.30;78.18
21838;BME280;11081;45.946;6.140;2023-02-21T03:21:29;95634.16;;;7.29;78.08
21838;BME280;11081;45.946;6.140;2023-02-21T03:24:01;95634.94;;;7.29;78.07
21838;BME280;11081;45.946;6.140;2023-02-21T03:26:35;95632.47;;;7.21;78.40
21838;BME280;11081;45.946;6.140;2023-02-21T03:29:22;95631.38;;;7.09;79.42
21838;BME280;11081;45.946;6.140;2023-02-21T03:31:54;95628.41;;;7.12;78.98
21838;BME280;11081;45.946;6.140;2023-02-21T03:34:23;95627.22;;;7.15;78.51
21838;BME280;11081;45.946;6.140;2023-02-21T03:36:54;95634.81;;;7.16;78.06
21838;BME280;11081;45.946;6.140;2023-02-21T03:39:22;95628.84;;;7.16;78.65
21838;BME280;11081;45.946;6.140;2023-02-21T03:41:50;95627.66;;;7.18;78.36
21838;BME280;11081;45.946;6.140;2023-02-21T03:44:18;95628.88;;;7.22;78.08
21838;BME280;11081;45.946;6.140;2023-02-21T03:46:47;95628.06;;;7.22;78.67
21838;BME280;11081;45.946;6.140;2023-02-21T03:49:15;95627.28;;;7.21;78.32
21838;BME280;11081;45.946;6.140;2023-02-21T03:51:43;95627.28;;;7.21;78.27
21838;BME280;11081;45.946;6.140;2023-02-21T03:54:13;95630.50;;;7.23;78.01
21838;BME280;11081;45.946;6.140;2023-02-21T03:56:45;95635.06;;;7.21;78.54
21838;BME280;11081;45.946;6.140;2023-02-21T03:59:21;95624.44;;;7.16;78.08
21838;BME280;11081;45.946;6.140;2023-02-21T04:01:49;95632.59;;;7.13;78.64
21838;BME280;11081;45.946;6.140;2023-02-21T04:04:18;95630.75;;;7.07;78.62
21838;BME280;11081;45.946;6.140;2023-02-21T04:06:53;95632.38;;;7.08;78.22
21838;BME280;11081;45.946;6.140;2023-02-21T04:09:26;95623.16;;;7.06;78.72
21838;BME280;11081;45.946;6.140;2023-02-21T04:11:54;95627.19;;;7.08;78.56
21838;BME280;11081;45.946;6.140;2023-02-21T04:14:22;95628.00;;;7.09;79.09
21838;BME280;11081;45.946;6.140;2023-02-21T04:16:50;95630.41;;;7.10;78.62
21838;BME280;11081;45.946;6.140;2023-02-21T04:19:18;95629.59;;;7.10;78.44
21838;BME280;11081;45.946;6.140;2023-02-21T04:21:46;95632.72;;;7.05;78.42
21838;BME280;11081;45.946;6.140;2023-02-21T04:24:15;95623.16;;;7.06;79.02
21838;BME280;11081;45.946;6.140;2023-02-21T04:26:45;95625.19;;;7.10;78.49
21838;BME280;11081;45.946;6.140;2023-02-21T04:29:13;95625.56;;;7.07;78.71
21838;BME280;11081;45.946;6.140;2023-02-21T04:31:41;95624.13;;;7.04;79.21
21838;BME280;11081;45.946;6.140;2023-02-21T04:34:14;95631.72;;;7.06;79.05
21838;BME280;11081;45.946;6.140;2023-02-21T04:36:43;95631.13;;;7.04;78.71
21838;BME280;11081;45.946;6.140;2023-02-21T04:39:12;95636.69;;;7.01;78.41
21838;BME280;11081;45.946;6.140;2023-02-21T04:41:41;95628.66;;;6.96;78.63
21838;BME280;11081;45.946;6.140;2023-02-21T04:44:11;95634.22;;;6.93;78.56
21838;BME280;11081;45.946;6.140;2023-02-21T04:46:39;95634.22;;;6.93;78.95
21838;BME280;11081;45.946;6.140;2023-02-21T04:49:07;95635.47;;;6.97;79.13
21838;BME280;11081;45.946;6.140;2023-02-21T04:51:35;95630.28;;;6.97;79.38
21838;BME280;11081;45.946;6.140;2023-02-21T04:54:03;95621.50;;;6.98;78.89
21838;BME280;11081;45.946;6.140;2023-02-21T04:56:33;95627.06;;;6.95;78.37
21838;BME280;11081;45.946;6.140;2023-02-21T04:59:03;95625.44;;;6.94;79.17
21838;BME280;11081;45.946;6.140;2023-02-21T05:01:32;95623.84;;;6.93;79.29
21838;BME280;11081;45.946;6.140;2023-02-21T05:04:01;95616.88;;;6.93;79.33
21838;BME280;11081;45.946;6.140;2023-02-21T05:06:29;95622.25;;;6.92;78.79
21838;BME280;11081;45.946;6.140;2023-02-21T05:08:58;95621.63;;;6.90;79.29
21838;BME280;11081;45.946;6.140;2023-02-21T05:11:27;95627.44;;;6.92;79.51
21838;BME280;11081;45.946;6.140;2023-02-21T05:13:55;95623.41;;;6.89;78.95
21838;BME280;11081;45.946;6.140;2023-02-21T05:16:23;95619.75;;;6.84;79.15
21838;BME280;11081;45.946;6.140;2023-02-21T05:18:52;95617.91;;;6.78;79.49
21838;BME280;11081;45.946;6.140;2023-02-21T05:21:21;95609.13;;;6.79;79.08
21838;BME280;11081;45.946;6.140;2023-02-21T05:23:49;95607.78;;;6.83;79.16
21838;BME280;11081;45.946;6.140;2023-02-21T05:26:25;95607.78;;;6.83;79.75
21838;BME280;11081;45.946;6.140;2023-02-21T05:28:55;95608.16;;;6.80;79.72
21838;BME280;11081;45.946;6.140;2023-02-21T05:31:23;95604.94;;;6.78;79.19
21838;BME280;11081;45.946;6.140;2023-02-21T05:33:52;95601.75;;;6.76;79.51
21838;BME280;11081;45.946;6.140;2023-02-21T05:36:21;95599.31;;;6.74;79.93
21838;BME280;11081;45.946;6.140;2023-02-21T05:38:52;95600.13;;;6.75;79.47
21838;BME280;11081;45.946;6.140;2023-02-21T05:41:21;95590.00;;;6.80;80.03
21838;BME280;11081;45.946;6.140;2023-02-21T05:43:50;95587.41;;;6.80;79.24
21838;BME280;11081;45.946;6.140;2023-02-21T05:46:20;95590.19;;;6.78;79.86
21838;BME280;11081;45.946;6.140;2023-02-21T05:48:49;95589.38;;;6.78;80.34
21838;BME280;11081;45.946;6.140;2023-02-21T05:51:19;95585.41;;;6.82;79.98
21838;BME280;11081;45.946;6.140;2023-02-21T05:53:47;95592.22;;;6.83;79.84
21838;BME280;11081;45.946;6.140;2023-02-21T05:56:17;95578.78;;;6.72;79.42
21838;BME280;11081;45.946;6.140;2023-02-21T05:58:45;95586.47;;;6.66;80.88
21838;BME280;11081;45.946;6.140;2023-02-21T06:01:13;95587.81;;;6.62;80.50
21838;BME280;11081;45.946;6.140;2023-02-21T06:03:41;95587.31;;;6.66;80.33
21838;BME280;11081;45.946;6.140;2023-02-21T06:06:10;95588.16;;;6.73;80.46
21838;BME280;11081;45.946;6.140;2023-02-21T06:08:44;95587.72;;;6.70;80.68
21838;BME280;11081;45.946;6.140;2023-02-21T06:11:12;95579.75;;;6.71;79.97
21838;BME280;11081;45.946;6.140;2023-02-21T06:13:41;95574.94;;;6.68;80.26
21838;BME280;11081;45.946;6.140;2023-02-21T06:16:09;95573.97;;;6.69;79.01
21838;BME280;11081;45.946;6.140;2023-02-21T06:18:37;95570.47;;;6.62;79.70
21838;BME280;11081;45.946;6.140;2023-02-21T06:21:05;95576.41;;;6.56;79.13
21838;BME280;11081;45.946;6.140;2023-02-21T06:23:33;95576.16;;;6.51;79.72
21838;BME280;11081;45.946;6.140;2023-02-21T06:26:02;95572.53;;;6.46;79.58
21838;BME280;11081;45.946;6.140;2023-02-21T06:28:30;95579.47;;;6.45;80.61
21838;BME280;11081;45.946;6.140;2023-02-21T06:30:58;95579.13;;;6.48;80.19
21838;BME280;11081;45.946;6.140;2023-02-21T06:33:26;95573.56;;;6.51;81.02
21838;BME280;11081;45.946;6.140;2023-02-21T06:35:54;95562.03;;;6.54;79.99
21838;BME280;11081;45.946;6.140;2023-02-21T06:38:23;95567.78;;;6.70;79.46
21838;BME280;11081;45.946;6.140;2023-02-21T06:40:51;95572.59;;;6.73;79.57
21838;BME280;11081;45.946;6.140;2023-02-21T06:43:20;95565.03;;;6.79;79.66
21838;BME280;11081;45.946;6.140;2023-02-21T06:45:48;95566.66;;;6.80;79.73
21838;BME280;11081;45.946;6.140;2023-02-21T06:48:16;95571.47;;;6.83;79.93
21838;BME280;11081;45.946;6.140;2023-02-21T06:50:44;95567.50;;;6.87;79.73
21838;BME280;11081;45.946;6.140;2023-02-21T06:53:13;95571.47;;;6.83;79.96
21838;BME280;11081;45.946;6.140;2023-02-21T06:55:40;95567.50;;;6.87;80.10
21838;BME280;11081;45.946;6.140;2023-02-21T06:58:09;95565.53;;;6.89;79.79
21838;BME280;11081;45.946;6.140;2023-02-21T07:00:38;95564.56;;;6.90;79.85
21838;BME280;11081;45.946;6.140;2023-02-21T07:03:06;95576.72;;;6.89;80.00
21838;BME280;11081;45.946;6.140;2023-02-21T07:05:34;95575.94;;;6.89;79.65
21838;BME280;11081;45.946;6.140;2023-02-21T07:08:04;95577.53;;;6.90;79.33
21838;BME280;11081;45.946;6.140;2023-02-21T07:10:32;95567.50;;;6.87;80.06
21838;BME280;11081;45.946;6.140;2023-02-21T07:13:00;95569.47;;;6.85;80.42
21838;BME280;11081;45.946;6.140;2023-02-21T07:15:28;95573.53;;;6.87;80.21
21838;BME280;11081;45.946;6.140;2023-02-21T07:17:58;95575.94;;;6.89;80.84
21838;BME280;11081;45.946;6.140;2023-02-21T07:20:26;95569.78;;;6.96;80.90
21838;BME280;11081;45.946;6.140;2023-02-21T07:22:54;95574.03;;;7.04;80.19
21838;BME280;11081;45.946;6.140;2023-02-21T07:25:22;95573.41;;;7.02;80.11
21838;BME280;11081;45.946;6.140;2023-02-21T07:27:50;95574.91;;;7.11;80.26
21838;BME280;11081;45.946;6.140;2023-02-21T07:30:19;95575.38;;;7.21;80.33
21838;BME280;11081;45.946;6.140;2023-02-21T07:32:47;95575.06;;;7.31;79.83
21838;BME280;11081;45.946;6.140;2023-02-21T07:35:17;95579.09;;;7.40;79.56
21838;BME280;11081;45.946;6.140;2023-02-21T07:37:45;95576.31;;;7.42;79.36
21838;BME280;11081;45.946;6.140;2023-02-21T07:40:13;95575.91;;;7.45;79.57
21838;BME280;11081;45.946;6.140;2023-02-21T07:42:41;95585.91;;;7.48;79.32
21838;BME280;11081;45.946;6.140;2023-02-21T07:45:10;95580.38;;;7.51;79.15
21838;BME280;11081;45.946;6.140;2023-02-21T07:47:39;95578.78;;;7.50;78.86
21838;BME280;11081;45.946;6.140;2023-02-21T07:50:09;95579.94;;;7.47;79.30
21838;BME280;11081;45.946;6.140;2023-02-21T07:52:38;95573.56;;;7.50;79.69
21838;BME280;11081;45.946;6.140;2023-02-21T07:55:07;95564.81;;;7.57;80.33
21838;BME280;11081;45.946;6.140;2023-02-21T07:57:35;95556.06;;;7.65;79.28
21838;BME280;11081;45.946;6.140;2023-02-21T08:00:03;95559.94;;;7.76;78.74
21838;BME280;11081;45.946;6.140;2023-02-21T08:02:38;95552.53;;;7.79;78.48
21838;BME280;11081;45.946;6.140;2023-02-21T08:05:07;95553.38;;;7.86;78.14
21838;BME280;11081;45.946;6.140;2023-02-21T08:07:35;95556.97;;;7.85;78.06
21838;BME280;11081;45.946;6.140;2023-02-21T08:10:05;95563.31;;;7.76;78.55
21838;BME280;11081;45.946;6.140;2023-02-21T08:12:33;95557.16;;;7.49;79.42
21838;BME280;11081;45.946;6.140;2023-02-21T08:15:01;95552.63;;;7.23;81.19
21838;BME280;11081;45.946;6.140;2023-02-21T08:17:30;95555.75;;;7.12;81.11
21838;BME280;11081;45.946;6.140;2023-02-21T08:19:58;95563.75;;;7.17;81.03
21838;BME280;11081;45.946;6.140;2023-02-21T08:22:26;95561.78;;;7.19;80.94
21838;BME280;11081;45.946;6.140;2023-02-21T08:24:54;95558.94;;;7.14;80.64
21838;BME280;11081;45.946;6.140;2023-02-21T08:27:24;95565.38;;;7.18;80.00
21838;BME280;11081;45.946;6.140;2023-02-21T08:29:52;95557.81;;;7.23;80.04
21838;BME280;11081;45.946;6.140;2023-02-21T08:32:20;95557.50;;;7.33;79.16
21838;BME280;11081;45.946;6.140;2023-02-21T08:34:48;95557.88;;;7.30;79.73
21838;BME280;11081;45.946;6.140;2023-02-21T08:37:16;95553.00;;;7.20;80.37
21838;BME280;11081;45.946;6.140;2023-02-21T08:39:46;95557.44;;;7.26;79.79
21838;BME280;11081;45.946;6.140;2023-02-21T08:42:14;95553.84;;;7.27;79.58
21838;BME280;11081;45.946;6.140;2023-02-21T08:44:44;95554.59;;;7.21;79.94
21838;BME280;11081;45.946;6.140;2023-02-21T08:47:13;95557.44;;;7.26;80.21
21838;BME280;11081;45.946;6.140;2023-02-21T08:49:43;95551.09;;;7.36;80.05
21838;BME280;11081;45.946;6.140;2023-02-21T08:52:13;95553.72;;;7.36;80.52
21838;BME280;11081;45.946;6.140;2023-02-21T08:54:42;95549.63;;;7.54;79.80
21838;BME280;11081;45.946;6.140;2023-02-21T08:57:11;95548.66;;;7.62;79.31
21838;BME280;11081;45.946;6.140;2023-02-21T08:59:40;95556.72;;;7.74;79.22
21838;BME280;11081;45.946;6.140;2023-02-21T09:02:14;95543.28;;;7.70;79.83
21838;BME280;11081;45.946;6.140;2023-02-21T09:04:42;95549.72;;;7.74;79.33
21838;BME280;11081;45.946;6.140;2023-02-21T09:07:11;95551.00;;;7.91;78.75
21838;BME280;11081;45.946;6.140;2023-02-21T09:09:39;95541.84;;;8.09;77.07
21838;BME280;11081;45.946;6.140;2023-02-21T09:12:08;95545.50;;;8.21;76.81
21838;BME280;11081;45.946;6.140;2023-02-21T09:14:37;95544.38;;;8.37;75.75
21838;BME280;11081;45.946;6.140;2023-02-21T09:17:07;95540.38;;;8.47;75.63
21838;BME280;11081;45.946;6.140;2023-02-21T09:19:36;95541.03;;;8.63;74.85
21838;BME280;11081;45.946;6.140;2023-02-21T09:22:06;95537.19;;;8.52;74.77
21838;BME280;11081;45.946;6.140;2023-02-21T09:24:34;95539.59;;;8.53;75.57
21838;BME280;11081;45.946;6.140;2023-02-21T09:27:03;95537.63;;;8.69;74.85
21838;BME280;11081;45.946;6.140;2023-02-21T09:29:33;95535.63;;;8.84;73.99
21838;BME280;11081;45.946;6.140;2023-02-21T09:32:12;95527.22;;;8.82;74.46
21838;BME280;11081;45.946;6.140;2023-02-21T09:34:42;95521.22;;;8.75;73.94
21838;BME280;11081;45.946;6.140;2023-02-21T09:37:10;95526.81;;;8.85;73.52
21838;BME280;11081;45.946;6.140;2023-02-21T09:39:38;95526.81;;;8.92;72.76
21838;BME280;11081;45.946;6.140;2023-02-21T09:42:06;95527.22;;;9.08;72.66
21838;BME280;11081;45.946;6.140;2023-02-21T09:44:34;95519.59;;;9.20;72.22
21838;BME280;11081;45.946;6.140;2023-02-21T09:47:04;95525.56;;;9.34;72.40
21838;BME280;11081;45.946;6.140;2023-02-21T09:49:36;95516.75;;;9.48;71.34
21838;BME280;11081;45.946;6.140;2023-02-21T09:52:14;95525.16;;;9.37;70.53
21838;BME280;11081;45.946;6.140;2023-02-21T09:54:46;95509.09;;;9.53;70.94
21838;BME280;11081;45.946;6.140;2023-02-21T09:57:18;95511.28;;;9.56;70.74
21838;BME280;11081;45.946;6.140;2023-02-21T09:59:47;95518.72;;;9.59;70.74
21838;BME280;11081;45.946;6.140;2023-02-21T10:02:29;95506.72;;;9.58;70.92
21838;BME280;11081;45.946;6.140;2023-02-21T10:05:04;95507.28;;;9.60;71.26
21838;BME280;11081;45.946;6.140;2023-02-21T10:07:40;95503.88;;;9.66;70.23
21838;BME280;11081;45.946;6.140;2023-02-21T10:10:13;95504.28;;;9.63;70.86
21838;BME280;11081;45.946;6.140;2023-02-21T10:12:48;95507.03;;;9.82;70.57
21838;BME280;11081;45.946;6.140;2023-02-21T10:15:32;95494.13;;;9.93;70.07
21838;BME280;11081;45.946;6.140;2023-02-21T10:18:08;95493.28;;;10.06;69.77
21838;BME280;11081;45.946;6.140;2023-02-21T10:20:49;95490.88;;;9.98;69.15
21838;BME280;11081;45.946;6.140;2023-02-21T10:23:22;95495.41;;;10.16;68.91
21838;BME280;11081;45.946;6.140;2023-02-21T10:25:55;95490.66;;;10.06;68.28
21838;BME280;11081;45.946;6.140;2023-02-21T10:28:25;95492.00;;;10.15;69.16
21838;BME280;11081;45.946;6.140;2023-02-21T10:30:56;95495.59;;;10.27;68.94
21838;BME280;11081;45.946;6.140;2023-02-21T10:33:25;95486.53;;;10.30;68.12
21838;BME280;11081;45.946;6.140;2023-02-21T10:35:53;95488.34;;;10.29;68.03
21838;BME280;11081;45.946;6.140;2023-02-21T10:38:25;95477.50;;;10.32;66.91
21838;BME280;11081;45.946;6.140;2023-02-21T10:40:55;95477.41;;;10.46;67.46
21838;BME280;11081;45.946;6.140;2023-02-21T10:43:29;95477.72;;;10.56;66.91
21838;BME280;11081;45.946;6.140;2023-02-21T10:46:01;95474.03;;;10.70;66.08
21838;BME280;11081;45.946;6.140;2023-02-21T10:48:35;95474.31;;;10.80;66.95
21838;BME280;11081;45.946;6.140;2023-02-21T10:51:06;95469.00;;;10.93;65.87
21838;BME280;11081;45.946;6.140;2023-02-21T10:53:37;95471.63;;;10.93;66.73
21838;BME280;11081;45.946;6.140;2023-02-21T10:56:24;95464.09;;;11.04;67.65
21838;BME280;11081;45.946;6.140;2023-02-21T10:58:55;95458.66;;;11.05;66.95
21838;BME280;11081;45.946;6.140;2023-02-21T11:01:33;95454.38;;;11.11;66.70
21838;BME280;11081;45.946;6.140;2023-02-21T11:04:04;95442.63;;;11.20;66.62
21838;BME280;11081;45.946;6.140;2023-02-21T11:06:35;95442.72;;;11.32;66.45
21838;BME280;11081;45.946;6.140;2023-02-21T11:09:28;95431.59;;;11.36;65.77
21838;BME280;11081;45.946;6.140;2023-02-21T11:12:01;95430.44;;;11.50;66.07
21838;BME280;11081;45.946;6.140;2023-02-21T11:14:30;95420.38;;;11.66;65.75
21838;BME280;11081;45.946;6.140;2023-02-21T11:17:14;95408.63;;;11.75;65.12
21838;BME280;11081;45.946;6.140;2023-02-21T11:19:45;95408.16;;;11.66;65.28
21838;BME280;11081;45.946;6.140;2023-02-21T11:22:16;95399.75;;;11.76;65.08
21838;BME280;11081;45.946;6.140;2023-02-21T11:24:59;95389.16;;;11.89;64.04
21838;BME280;11081;45.946;6.140;2023-02-21T11:27:29;95386.22;;;11.97;64.19
21838;BME280;11081;45.946;6.140;2023-02-21T11:29:58;95370.53;;;11.97;64.82
21838;BME280;11081;45.946;6.140;2023-02-21T11:32:31;95378.03;;;12.05;64.20
21838;BME280;11081;45.946;6.140;2023-02-21T11:35:02;95372.63;;;12.18;63.76
21838;BME280;11081;45.946;6.140;2023-02-21T11:37:31;95369.25;;;12.30;63.36
21838;BME280;11081;45.946;6.140;2023-02-21T11:40:01;95360.13;;;12.20;63.89
21838;BME280;11081;45.946;6.140;2023-02-21T11:42:32;95361.41;;;12.30;63.66
21838;BME280;11081;45.946;6.140;2023-02-21T11:45:15;95359.22;;;12.38;62.79
21838;BME280;11081;45.946;6.140;2023-02-21T11:47:55;95348.78;;;12.50;62.51
21838;BME280;11081;45.946;6.140;2023-02-21T11:50:26;95336.13;;;12.59;62.46
21838;BME280;11081;45.946;6.140;2023-02-21T11:53:03;95339.56;;;12.59;62.71
21838;BME280;11081;45.946;6.140;2023-02-21T11:55:34;95340.34;;;12.71;62.14
21838;BME280;11081;45.946;6.140;2023-02-21T11:58:13;95319.59;;;12.81;61.48
21838;BME280;11081;45.946;6.140;2023-02-21T12:00:48;95307.31;;;12.94;60.94
21838;BME280;11081;45.946;6.140;2023-02-21T12:03:46;95311.78;;;13.10;61.16
21838;BME280;11081;45.946;6.140;2023-02-21T12:06:22;95302.59;;;13.19;61.46
21838;BME280;11081;45.946;6.140;2023-02-21T12:08:57;95293.78;;;13.25;60.93
21838;BME280;11081;45.946;6.140;2023-02-21T12:11:36;95290.13;;;13.26;61.00
21838;BME280;11081;45.946;6.140;2023-02-21T12:14:18;95289.91;;;13.28;60.76
21838;BME280;11081;45.946;6.140;2023-02-21T12:16:58;95293.31;;;13.28;61.49
21838;BME280;11081;45.946;6.140;2023-02-21T12:19:56;95289.66;;;13.29;60.53
21838;BME280;11081;45.946;6.140;2023-02-21T12:22:39;95287.72;;;13.36;62.09
21838;BME280;11081;45.946;6.140;2023-02-21T12:25:16;95278.91;;;13.42;61.31
21838;BME280;11081;45.946;6.140;2023-02-21T12:27:52;95277.97;;;13.49;61.58
21838;BME280;11081;45.946;6.140;2023-02-21T12:30:36;95281.56;;;13.59;60.97
21838;BME280;11081;45.946;6.140;2023-02-21T12:33:18;95279.91;;;13.70;62.08
21838;BME280;11081;45.946;6.140;2023-02-21T12:36:34;95272.34;;;13.73;61.84
21838;BME280;11081;45.946;6.140;2023-02-21T12:39:18;95265.94;;;13.81;61.78
21838;BME280;11081;45.946;6.140;2023-02-21T12:42:03;95260.69;;;13.81;60.95
21838;BME280;11081;45.946;6.140;2023-02-21T12:44:38;95261.25;;;13.83;62.34
21838;BME280;11081;45.946;6.140;2023-02-21T12:47:13;95250.28;;;13.86;62.02
21838;BME280;11081;45.946;6.140;2023-02-21T12:49:50;95249.72;;;14.01;62.01
21838;BME280;11081;45.946;6.140;2023-02-21T12:52:25;95242.22;;;14.10;61.88
21838;BME280;11081;45.946;6.140;2023-02-21T12:54:58;95231.72;;;14.10;62.07
21838;BME280;11081;45.946;6.140;2023-02-21T12:57:35;95229.97;;;14.15;61.44
21838;BME280;11081;45.946;6.140;2023-02-21T13:00:15;95223.47;;;14.18;61.71
21838;BME280;11081;45.946;6.140;2023-02-21T13:02:54;95231.41;;;14.23;61.60
21838;BME280;11081;45.946;6.140;2023-02-21T13:05:32;95220.75;;;14.13;61.13
21838;BME280;11081;45.946;6.140;2023-02-21T13:08:13;95221.72;;;14.07;60.86
21838;BME280;11081;45.946;6.140;2023-02-21T13:10:51;95211.38;;;14.17;61.71
21838;BME280;11081;45.946;6.140;2023-02-21T13:13:23;95215.19;;;14.26;61.02
21838;BME280;11081;45.946;6.140;2023-02-21T13:15:54;95210.41;;;14.23;62.71
21838;BME280;11081;45.946;6.140;2023-02-21T13:18:25;95207.84;;;14.28;62.85
21838;BME280;11081;45.946;6.140;2023-02-21T13:20:59;95201.47;;;14.41;61.07
21838;BME280;11081;45.946;6.140;2023-02-21T13:23:48;95201.16;;;14.37;60.66
21838;BME280;11081;45.946;6.140;2023-02-21T13:26:31;95199.22;;;14.49;60.35
21838;BME280;11081;45.946;6.140;2023-02-21T13:29:13;95190.91;;;14.57;60.17
21838;BME280;11081;45.946;6.140;2023-02-21T13:31:57;95191.28;;;14.44;60.77
21838;BME280;11081;45.946;6.140;2023-02-21T13:34:28;95182.69;;;14.49;60.54
21838;BME280;11081;45.946;6.140;2023-02-21T13:37:02;95182.03;;;14.58;60.10
21838;BME280;11081;45.946;6.140;2023-02-21T13:39:32;95186.28;;;14.64;60.80
21838;BME280;11081;45.946;6.140;2023-02-21T13:42:06;95180.53;;;14.68;60.09
21838;BME280;11081;45.946;6.140;2023-02-21T13:44:37;95177.59;;;14.86;59.42
21838;BME280;11081;45.946;6.140;2023-02-21T13:47:12;95172.53;;;15.01;58.71
21838;BME280;11081;45.946;6.140;2023-02-21T13:49:44;95175.16;;;15.01;58.71